sensor_id;sensor_type;location;lat;lon;timestamp;pressure;altitude;pressure_sealevel;temperature;humidity
29417;BME280;28421;51.030;4.006;2024-01-15T00:01:16;100550.25;;;1.67;100.00
29417;BME280;28421;51.030;4.006;2024-01-15T00:03:42;100562.91;;;1.63;100.00
29417;BME280;28421;51.030;4.006;2024-01-15T00:06:08;100593.69;;;1.98;100.00
29417;BME280;28421;51.030;4.006;2024-01-15T00:08:33;100568.19;;;1.74;100.00
29417;BME280;28421;51.030;4.006;2024-01-15T00:10:58;100579.28;;;1.80;100.00
29417;BME280;28421;51.030;4.006;2024-01-15T00:13:24;100539.28;;;1.60;100.00
29417;BME280;28421;51.030;4.006;2024-01-15T00:15:49;100552.03;;;1.78;100.00
29417;BME280;28421;51.030;4.006;2024-01-15T00:18:15;100588.84;;;2.03;100.00
29417;BME280;28421;51.030;4.006;2024-01-15T00:20:41;100592.69;;;2.10;100.00
29417;BME280;28421;51.030;4.006;2024-01-15T00:23:06;100585.97;;;2.06;100.00
29417;BME280;28421;51.030;4.006;2024-01-15T00:25:31;100574.50;;;2.06;100.00
29417;BME280;28421;51.030;4.006;2024-01-15T00:27:57;100589.44;;;2.18;100.00
29417;BME280;28421;51.030;4.006;2024-01-15T00:30:22;100563.81;;;1.96;100.00
29417;BME280;28421;51.030;4.006;2024-01-15T00:32:48;100603.06;;;2.13;100.00
29417;BME280;28421;51.030;4.006;2024-01-15T00:35:13;100548.91;;;1.84;100.00
29417;BME280;28421;51.030;4.006;2024-01-15T00:37:39;100558.75;;;1.93;100.00
29417;BME280;28421;51.030;4.006;2024-01-15T00:40:05;100539.59;;;1.78;100.00
29417;BME280;28421;51.030;4.006;2024-01-15T00:42:33;100548.16;;;1.82;100.00
29417;BME280;28421;51.030;4.006;2024-01-15T00:44:59;100554.19;;;1.84;100.00
29417;BME280;28421;51.030;4.006;2024-01-15T00:47:24;100559.97;;;1.89;100.00
29417;BME280;28421;51.030;4.006;2024-01-15T00:49:50;100568.75;;;1.89;100.00
29417;BME280;28421;51.030;4.006;2024-01-15T00:52:15;100562.00;;;1.85;100.00
29417;BME280;28421;51.030;4.006;2024-01-15T00:54:41;100568.84;;;1.99;100.00
29417;BME280;28421;51.030;4.006;2024-01-15T00:57:06;100547.78;;;1.86;100.00
29417;BME280;28421;51.030;4.006;2024-01-15T00:59:32;100520.50;;;1.74;100.00
29417;BME280;28421;51.030;4.006;2024-01-15T01:01:57;100521.19;;;1.65;100.00
29417;BME280;28421;51.030;4.006;2024-01-15T01:04:23;100564.78;;;1.95;100.00
29417;BME280;28421;51.030;4.006;2024-01-15T01:06:49;100560.78;;;2.01;100.00
29417;BME280;28421;51.030;4.006;2024-01-15T01:09:14;100542.16;;;1.91;100.00
29417;BME280;28421;51.030;4.006;2024-01-15T01:11:40;100541.25;;;2.02;100.00
29417;BME280;28421;51.030;4.006;2024-01-15T01:14:05;100530.34;;;1.72;100.00
29417;BME280;28421;51.030;4.006;2024-01-15T01:16:31;100528.06;;;1.68;100.00
29417;BME280;28421;51.030;4.006;2024-01-15T01:18:59;100543.00;;;1.80;100.00
29417;BME280;28421;51.030;4.006;2024-01-15T01:21:24;100531.78;;;1.77;100.00
29417;BME280;28421;51.030;4.006;2024-01-15T01:23:50;100533.97;;;1.71;100.00
29417;BME280;28421;51.030;4.006;2024-01-15T01:26:16;100534.06;;;1.81;100.00
29417;BME280;28421;51.030;4.006;2024-01-15T01:28:42;100544.06;;;1.89;100.00
29417;BME280;28421;51.030;4.006;2024-01-15T01:31:07;100520.50;;;1.74;100.00
29417;BME280;28421;51.030;4.006;2024-01-15T01:33:33;100522.16;;;1.87;100.00
29417;BME280;28421;51.030;4.006;2024-01-15T01:35:59;100510.94;;;1.83;100.00
29417;BME280;28421;51.030;4.006;2024-01-15T01:38:24;100512.63;;;1.84;100.00
29417;BME280;28421;51.030;4.006;2024-01-15T01:40:50;100530.59;;;1.81;100.00
29417;BME280;28421;51.030;4.006;2024-01-15T01:43:16;100492.34;;;1.51;100.00
29417;BME280;28421;51.030;4.006;2024-01-15T01:45:41;100525.31;;;1.58;100.00
29417;BME280;28421;51.030;4.006;2024-01-15T01:48:07;100520.13;;;1.68;100.00
29417;BME280;28421;51.030;4.006;2024-01-15T01:50:33;100501.47;;;1.58;100.00
29417;BME280;28421;51.030;4.006;2024-01-15T01:53:00;100519.38;;;1.77;100.00
29417;BME280;28421;51.030;4.006;2024-01-15T01:55:27;100510.13;;;1.71;100.00
29417;BME280;28421;51.030;4.006;2024-01-15T01:57:55;100520.56;;;1.84;100.00
29417;BME280;28421;51.030;4.006;2024-01-15T02:00:20;100521.28;;;1.86;100.00
29417;BME280;28421;51.030;4.006;2024-01-15T02:02:46;100522.47;;;1.93;100.00
29417;BME280;28421;51.030;4.006;2024-01-15T02:05:13;100527.53;;;1.96;100.00
29417;BME280;28421;51.030;4.006;2024-01-15T02:07:40;100478.94;;;1.64;100.00
29417;BME280;28421;51.030;4.006;2024-01-15T02:10:06;100529.59;;;1.82;100.00
29417;BME280;28421;51.030;4.006;2024-01-15T02:12:32;100499.53;;;1.71;100.00
29417;BME280;28421;51.030;4.006;2024-01-15T02:14:57;100521.03;;;1.89;100.00
29417;BME280;28421;51.030;4.006;2024-01-15T02:17:23;100496.88;;;1.60;100.00
29417;BME280;28421;51.030;4.006;2024-01-15T02:19:49;100511.41;;;1.88;100.00
29417;BME280;28421;51.030;4.006;2024-01-15T02:22:15;100518.22;;;2.02;100.00
29417;BME280;28421;51.030;4.006;2024-01-15T02:24:40;100478.38;;;1.38;100.00
29417;BME280;28421;51.030;4.006;2024-01-15T02:27:06;100517.78;;;1.86;100.00
29417;BME280;28421;51.030;4.006;2024-01-15T02:29:32;100489.16;;;1.80;100.00
29417;BME280;28421;51.030;4.006;2024-01-15T02:31:57;100493.81;;;1.87;100.00
29417;BME280;28421;51.030;4.006;2024-01-15T02:34:23;100493.22;;;1.95;100.00
29417;BME280;28421;51.030;4.006;2024-01-15T02:36:49;100518.69;;;2.07;100.00
29417;BME280;28421;51.030;4.006;2024-01-15T02:39:14;100493.72;;;1.78;100.00
29417;BME280;28421;51.030;4.006;2024-01-15T02:41:40;100500.81;;;1.88;100.00
29417;BME280;28421;51.030;4.006;2024-01-15T02:44:05;100503.47;;;1.88;100.00
29417;BME280;28421;51.030;4.006;2024-01-15T02:46:31;100501.25;;;1.93;100.00
29417;BME280;28421;51.030;4.006;2024-01-15T02:48:56;100466.03;;;1.70;100.00
29417;BME280;28421;51.030;4.006;2024-01-15T02:51:21;100506.31;;;1.96;100.00
29417;BME280;28421;51.030;4.006;2024-01-15T02:53:48;100494.44;;;1.91;100.00
29417;BME280;28421;51.030;4.006;2024-01-15T02:56:14;100484.13;;;1.97;100.00
29417;BME280;28421;51.030;4.006;2024-01-15T02:58:40;100479.34;;;1.91;100.00
29417;BME280;28421;51.030;4.006;2024-01-15T03:01:05;100489.81;;;1.93;100.00
29417;BME280;28421;51.030;4.006;2024-01-15T03:03:30;100479.50;;;1.79;100.00
29417;BME280;28421;51.030;4.006;2024-01-15T03:05:58;100457.19;;;1.81;100.00
29417;BME280;28421;51.030;4.006;2024-01-15T03:08:23;100463.66;;;1.56;100.00
29417;BME280;28421;51.030;4.006;2024-01-15T03:10:49;100503.84;;;1.84;100.00
29417;BME280;28421;51.030;4.006;2024-01-15T03:13:14;100482.19;;;1.67;100.00
29417;BME280;28421;51.030;4.006;2024-01-15T03:15:40;100443.56;;;1.54;100.00
29417;BME280;28421;51.030;4.006;2024-01-15T03:18:05;100462.91;;;1.65;100.00
29417;BME280;28421;51.030;4.006;2024-01-15T03:20:31;100433.31;;;1.49;100.00
29417;BME280;28421;51.030;4.006;2024-01-15T03:22:56;100460.38;;;1.64;100.00
29417;BME280;28421;51.030;4.006;2024-01-15T03:25:22;100435.84;;;1.62;100.00
29417;BME280;28421;51.030;4.006;2024-01-15T03:27:47;100464.81;;;1.74;100.00
29417;BME280;28421;51.030;4.006;2024-01-15T03:30:13;100469.16;;;1.76;100.00
29417;BME280;28421;51.030;4.006;2024-01-15T03:32:39;100459.69;;;1.62;100.00
29417;BME280;28421;51.030;4.006;2024-01-15T03:35:04;100459.09;;;1.58;100.00
29417;BME280;28421;51.030;4.006;2024-01-15T03:37:30;100460.59;;;1.72;100.00
29417;BME280;28421;51.030;4.006;2024-01-15T03:39:55;100455.53;;;1.80;100.00
29417;BME280;28421;51.030;4.006;2024-01-15T03:42:21;100444.50;;;1.53;100.00
29417;BME280;28421;51.030;4.006;2024-01-15T03:44:47;100461.31;;;1.74;100.00
29417;BME280;28421;51.030;4.006;2024-01-15T03:47:12;100464.72;;;1.65;100.00
29417;BME280;28421;51.030;4.006;2024-01-15T03:49:38;100453.25;;;1.76;100.00
29417;BME280;28421;51.030;4.006;2024-01-15T03:52:03;100482.09;;;2.01;100.00
29417;BME280;28421;51.030;4.006;2024-01-15T03:54:29;100455.91;;;1.76;100.00
29417;BME280;28421;51.030;4.006;2024-01-15T03:56:54;100444.72;;;1.72;100.00
29417;BME280;28421;51.030;4.006;2024-01-15T03:59:20;100398.84;;;1.60;100.00
29417;BME280;28421;51.030;4.006;2024-01-15T04:01:49;100440.09;;;1.74;100.00
29417;BME280;28421;51.030;4.006;2024-01-15T04:04:16;100415.97;;;1.56;100.00
29417;BME280;28421;51.030;4.006;2024-01-15T04:06:42;100424.81;;;1.78;100.00
29417;BME280;28421;51.030;4.006;2024-01-15T04:09:08;100439.22;;;1.96;100.00
29417;BME280;28421;51.030;4.006;2024-01-15T04:11:33;100439.06;;;1.97;100.00
29417;BME280;28421;51.030;4.006;2024-01-15T04:13:58;100415.03;;;1.78;100.00
29417;BME280;28421;51.030;4.006;2024-01-15T04:16:24;100423.34;;;1.85;100.00
29417;BME280;28421;51.030;4.006;2024-01-15T04:18:49;100427.41;;;1.89;100.00
29417;BME280;28421;51.030;4.006;2024-01-15T04:21:17;100455.44;;;2.03;100.00
29417;BME280;28421;51.030;4.006;2024-01-15T04:23:43;100411.81;;;1.74;100.00
29417;BME280;28421;51.030;4.006;2024-01-15T04:26:09;100462.53;;;2.02;100.00
29417;BME280;28421;51.030;4.006;2024-01-15T04:28:34;100449.53;;;1.99;100.00
29417;BME280;28421;51.030;4.006;2024-01-15T04:31:00;100411.69;;;1.76;100.00
29417;BME280;28421;51.030;4.006;2024-01-15T04:33:25;100420.34;;;1.78;100.00
29417;BME280;28421;51.030;4.006;2024-01-15T04:35:51;100447.44;;;1.82;100.00
29417;BME280;28421;51.030;4.006;2024-01-15T04:38:16;100419.13;;;1.82;100.00
29417;BME280;28421;51.030;4.006;2024-01-15T04:40:42;100427.13;;;1.71;100.00
29417;BME280;28421;51.030;4.006;2024-01-15T04:43:07;100403.16;;;1.61;100.00
29417;BME280;28421;51.030;4.006;2024-01-15T04:45:33;100429.41;;;1.76;100.00
29417;BME280;28421;51.030;4.006;2024-01-15T04:47:58;100406.78;;;1.60;100.00
29417;BME280;28421;51.030;4.006;2024-01-15T04:50:24;100417.16;;;1.52;100.00
29417;BME280;28421;51.030;4.006;2024-01-15T04:52:50;100419.44;;;1.57;100.00
29417;BME280;28421;51.030;4.006;2024-01-15T04:55:15;100411.78;;;1.42;100.00
29417;BME280;28421;51.030;4.006;2024-01-15T04:57:41;100454.72;;;1.68;100.00
29417;BME280;28421;51.030;4.006;2024-01-15T05:00:07;100394.84;;;1.22;100.00
29417;BME280;28421;51.030;4.006;2024-01-15T05:02:32;100408.91;;;1.34;100.00
29417;BME280;28421;51.030;4.006;2024-01-15T05:04:58;100415.78;;;1.26;100.00
29417;BME280;28421;51.030;4.006;2024-01-15T05:07:23;100426.25;;;1.38;100.00
29417;BME280;28421;51.030;4.006;2024-01-15T05:09:49;100415.66;;;1.27;100.00
29417;BME280;28421;51.030;4.006;2024-01-15T05:12:14;100413.38;;;1.34;100.00
29417;BME280;28421;51.030;4.006;2024-01-15T05:14:39;100417.56;;;1.36;100.00
29417;BME280;28421;51.030;4.006;2024-01-15T05:17:05;100371.06;;;1.00;100.00
29417;BME280;28421;51.030;4.006;2024-01-15T05:19:30;100411.56;;;1.23;100.00
29417;BME280;28421;51.030;4.006;2024-01-15T05:21:56;100415.44;;;1.19;100.00
29417;BME280;28421;51.030;4.006;2024-01-15T05:24:21;100368.91;;;0.94;100.00
29417;BME280;28421;51.030;4.006;2024-01-15T05:26:47;100419.16;;;1.28;100.00
29417;BME280;28421;51.030;4.006;2024-01-15T05:29:12;100402.84;;;1.00;100.00
29417;BME280;28421;51.030;4.006;2024-01-15T05:31:38;100370.69;;;0.82;100.00
29417;BME280;28421;51.030;4.006;2024-01-15T05:34:03;100407.25;;;0.99;100.00
29417;BME280;28421;51.030;4.006;2024-01-15T05:36:29;100383.22;;;0.80;100.00
29417;BME280;28421;51.030;4.006;2024-01-15T05:38:54;100392.94;;;0.91;100.00
29417;BME280;28421;51.030;4.006;2024-01-15T05:41:20;100383.84;;;0.84;100.00
29417;BME280;28421;51.030;4.006;2024-01-15T05:43:45;100401.16;;;0.88;100.00
29417;BME280;28421;51.030;4.006;2024-01-15T05:46:11;100409.34;;;0.96;100.00
29417;BME280;28421;51.030;4.006;2024-01-15T05:48:36;100379.59;;;0.70;100.00
29417;BME280;28421;51.030;4.006;2024-01-15T05:51:02;100381.56;;;0.79;100.00
29417;BME280;28421;51.030;4.006;2024-01-15T05:53:27;100408.00;;;1.02;100.00
29417;BME280;28421;51.030;4.006;2024-01-15T05:55:53;100378.03;;;0.79;100.00
29417;BME280;28421;51.030;4.006;2024-01-15T05:58:21;100383.69;;;0.85;100.00
29417;BME280;28421;51.030;4.006;2024-01-15T06:00:46;100369.16;;;0.80;100.00
29417;BME280;28421;51.030;4.006;2024-01-15T06:03:13;100383.34;;;0.90;100.00
29417;BME280;28421;51.030;4.006;2024-01-15T06:05:38;100395.59;;;0.91;100.00
29417;BME280;28421;51.030;4.006;2024-01-15T06:08:05;100396.81;;;0.87;100.00
29417;BME280;28421;51.030;4.006;2024-01-15T06:10:30;100380.44;;;0.70;100.00
29417;BME280;28421;51.030;4.006;2024-01-15T06:12:56;100411.75;;;0.88;100.00
29417;BME280;28421;51.030;4.006;2024-01-15T06:15:21;100345.22;;;0.36;100.00
29417;BME280;28421;51.030;4.006;2024-01-15T06:17:47;100382.63;;;0.54;100.00
29417;BME280;28421;51.030;4.006;2024-01-15T06:20:12;100368.81;;;0.51;100.00
29417;BME280;28421;51.030;4.006;2024-01-15T06:22:38;100405.59;;;0.76;100.00
29417;BME280;28421;51.030;4.006;2024-01-15T06:25:07;100347.00;;;0.36;100.00
29417;BME280;28421;51.030;4.006;2024-01-15T06:27:32;100372.53;;;0.59;100.00
29417;BME280;28421;51.030;4.006;2024-01-15T06:29:58;100339.22;;;0.34;100.00
29417;BME280;28421;51.030;4.006;2024-01-15T06:32:23;100358.31;;;0.49;100.00
29417;BME280;28421;51.030;4.006;2024-01-15T06:34:49;100360.50;;;0.55;100.00
29417;BME280;28421;51.030;4.006;2024-01-15T06:37:14;100389.47;;;0.68;100.00
29417;BME280;28421;51.030;4.006;2024-01-15T06:39:40;100374.09;;;0.51;100.00
29417;BME280;28421;51.030;4.006;2024-01-15T06:42:06;100344.00;;;0.40;100.00
29417;BME280;28421;51.030;4.006;2024-01-15T06:44:31;100406.31;;;0.78;100.00
29417;BME280;28421;51.030;4.006;2024-01-15T06:46:57;100410.53;;;0.69;100.00
29417;BME280;28421;51.030;4.006;2024-01-15T06:49:28;100386.72;;;0.69;100.00
29417;BME280;28421;51.030;4.006;2024-01-15T06:51:53;100384.66;;;0.62;100.00
29417;BME280;28421;51.030;4.006;2024-01-15T06:54:19;100383.81;;;0.61;100.00
29417;BME280;28421;51.030;4.006;2024-01-15T06:56:45;100346.06;;;0.26;100.00
29417;BME280;28421;51.030;4.006;2024-01-15T06:59:11;100376.13;;;0.47;100.00
29417;BME280;28421;51.030;4.006;2024-01-15T07:01:36;100376.13;;;0.47;100.00
29417;BME280;28421;51.030;4.006;2024-01-15T07:04:02;100392.94;;;0.57;100.00
29417;BME280;28421;51.030;4.006;2024-01-15T07:06:28;100381.75;;;0.54;100.00
29417;BME280;28421;51.030;4.006;2024-01-15T07:08:56;100340.38;;;0.19;100.00
29417;BME280;28421;51.030;4.006;2024-01-15T07:11:22;100389.69;;;0.54;100.00
29417;BME280;28421;51.030;4.006;2024-01-15T07:13:47;100363.88;;;0.46;100.00
29417;BME280;28421;51.030;4.006;2024-01-15T07:16:13;100344.25;;;0.26;100.00
29417;BME280;28421;51.030;4.006;2024-01-15T07:18:38;100370.59;;;0.50;100.00
29417;BME280;28421;51.030;4.006;2024-01-15T07:21:04;100356.41;;;0.40;100.00
29417;BME280;28421;51.030;4.006;2024-01-15T07:23:31;100405.72;;;0.63;100.00
29417;BME280;28421;51.030;4.006;2024-01-15T07:25:57;100343.50;;;0.24;100.00
29417;BME280;28421;51.030;4.006;2024-01-15T07:28:22;100392.59;;;0.62;100.00
29417;BME280;28421;51.030;4.006;2024-01-15T07:30:48;100405.25;;;0.58;100.00
29417;BME280;28421;51.030;4.006;2024-01-15T07:33:13;100371.56;;;0.38;100.00
29417;BME280;28421;51.030;4.006;2024-01-15T07:35:39;100388.16;;;0.51;100.00
29417;BME280;28421;51.030;4.006;2024-01-15T07:38:04;100364.81;;;0.34;100.00
29417;BME280;28421;51.030;4.006;2024-01-15T07:40:30;100409.19;;;0.53;100.00
29417;BME280;28421;51.030;4.006;2024-01-15T07:42:55;100423.97;;;0.66;100.00
29417;BME280;28421;51.030;4.006;2024-01-15T07:45:21;100423.25;;;0.53;100.00
29417;BME280;28421;51.030;4.006;2024-01-15T07:47:46;100419.16;;;0.49;100.00
29417;BME280;28421;51.030;4.006;2024-01-15T07:50:12;100413.25;;;0.45;100.00
29417;BME280;28421;51.030;4.006;2024-01-15T07:52:39;100424.44;;;0.49;100.00
29417;BME280;28421;51.030;4.006;2024-01-15T07:55:05;100403.63;;;0.44;100.00
29417;BME280;28421;51.030;4.006;2024-01-15T07:57:31;100412.31;;;0.46;100.00
29417;BME280;28421;51.030;4.006;2024-01-15T07:59:56;100378.88;;;0.34;100.00
29417;BME280;28421;51.030;4.006;2024-01-15T08:02:22;100401.72;;;0.46;100.00
29417;BME280;28421;51.030;4.006;2024-01-15T08:04:47;100451.28;;;0.78;100.00
29417;BME280;28421;51.030;4.006;2024-01-15T08:07:13;100441.69;;;0.77;100.00
29417;BME280;28421;51.030;4.006;2024-01-15T08:09:38;100424.50;;;0.71;100.00
29417;BME280;28421;51.030;4.006;2024-01-15T08:12:04;100433.84;;;0.64;100.00
29417;BME280;28421;51.030;4.006;2024-01-15T08:14:31;100420.16;;;0.59;100.00
29417;BME280;28421;51.030;4.006;2024-01-15T08:16:57;100444.69;;;0.72;100.00
29417;BME280;28421;51.030;4.006;2024-01-15T08:19:22;100435.44;;;0.67;100.00
29417;BME280;28421;51.030;4.006;2024-01-15T08:21:49;100469.97;;;0.88;100.00
29417;BME280;28421;51.030;4.006;2024-01-15T08:24:14;100460.44;;;0.74;100.00
29417;BME280;28421;51.030;4.006;2024-01-15T08:26:40;100447.09;;;0.64;100.00
29417;BME280;28421;51.030;4.006;2024-01-15T08:29:05;100441.44;;;0.69;100.00
29417;BME280;28421;51.030;4.006;2024-01-15T08:31:31;100455.00;;;0.64;100.00
29417;BME280;28421;51.030;4.006;2024-01-15T08:33:56;100431.19;;;0.53;100.00
29417;BME280;28421;51.030;4.006;2024-01-15T08:36:23;100452.41;;;0.76;100.00
29417;BME280;28421;51.030;4.006;2024-01-15T08:38:49;100432.88;;;0.65;100.00
29417;BME280;28421;51.030;4.006;2024-01-15T08:41:15;100437.81;;;0.70;100.00
29417;BME280;28421;51.030;4.006;2024-01-15T08:43:40;100431.94;;;0.78;100.00
29417;BME280;28421;51.030;4.006;2024-01-15T08:46:06;100455.28;;;0.84;100.00
29417;BME280;28421;51.030;4.006;2024-01-15T08:48:32;100451.09;;;0.92;100.00
29417;BME280;28421;51.030;4.006;2024-01-15T08:50:57;100433.75;;;0.88;100.00
29417;BME280;28421;51.030;4.006;2024-01-15T08:53:23;100476.72;;;1.26;100.00
29417;BME280;28421;51.030;4.006;2024-01-15T08:55:49;100473.56;;;1.43;100.00
29417;BME280;28421;51.030;4.006;2024-01-15T08:58:14;100431.78;;;1.24;100.00
29417;BME280;28421;51.030;4.006;2024-01-15T09:00:40;100470.53;;;1.47;100.00
29417;BME280;28421;51.030;4.006;2024-01-15T09:03:05;100467.41;;;1.42;100.00
29417;BME280;28421;51.030;4.006;2024-01-15T09:05:32;100452.13;;;1.46;100.00
29417;BME280;28421;51.030;4.006;2024-01-15T09:07:57;100433.59;;;1.35;100.00
29417;BME280;28421;51.030;4.006;2024-01-15T09:10:23;100477.38;;;1.61;100.00
29417;BME280;28421;51.030;4.006;2024-01-15T09:12:49;100445.63;;;1.39;100.00
29417;BME280;28421;51.030;4.006;2024-01-15T09:15:15;100436.34;;;1.44;100.00
29417;BME280;28421;51.030;4.006;2024-01-15T09:17:40;100451.63;;;1.52;100.00
29417;BME280;28421;51.030;4.006;2024-01-15T09:20:07;100461.84;;;1.57;100.00
29417;BME280;28421;51.030;4.006;2024-01-15T09:22:33;100465.84;;;1.51;100.00
29417;BME280;28421;51.030;4.006;2024-01-15T09:24:58;100471.00;;;1.53;100.00
29417;BME280;28421;51.030;4.006;2024-01-15T09:27:24;100442.81;;;1.52;100.00
29417;BME280;28421;51.030;4.006;2024-01-15T09:29:53;100497.06;;;1.91;100.00
29417;BME280;28421;51.030;4.006;2024-01-15T09:32:18;100443.97;;;1.70;100.00
29417;BME280;28421;51.030;4.006;2024-01-15T09:34:45;100458.63;;;1.85;100.00
29417;BME280;28421;51.030;4.006;2024-01-15T09:37:11;100467.63;;;1.94;100.00
29417;BME280;28421;51.030;4.006;2024-01-15T09:39:37;100492.06;;;2.09;100.00
29417;BME280;28421;51.030;4.006;2024-01-15T09:42:03;100454.84;;;1.99;100.00
29417;BME280;28421;51.030;4.006;2024-01-15T09:44:29;100442.63;;;1.87;99.99
29417;BME280;28421;51.030;4.006;2024-01-15T09:46:57;100481.31;;;2.10;98.13
29417;BME280;28421;51.030;4.006;2024-01-15T09:49:23;100450.13;;;2.03;97.86
29417;BME280;28421;51.030;4.006;2024-01-15T09:51:49;100451.16;;;2.11;98.11
29417;BME280;28421;51.030;4.006;2024-01-15T09:54:15;100458.63;;;2.17;96.48
29417;BME280;28421;51.030;4.006;2024-01-15T09:56:45;100502.34;;;2.55;95.24
29417;BME280;28421;51.030;4.006;2024-01-15T09:59:15;100453.28;;;2.29;95.22
29417;BME280;28421;51.030;4.006;2024-01-15T10:01:41;100483.56;;;2.47;94.88
29417;BME280;28421;51.030;4.006;2024-01-15T10:04:08;100489.72;;;2.47;95.24
29417;BME280;28421;51.030;4.006;2024-01-15T10:06:34;100469.13;;;2.40;94.14
29417;BME280;28421;51.030;4.006;2024-01-15T10:09:00;100479.34;;;2.44;94.12
29417;BME280;28421;51.030;4.006;2024-01-15T10:11:26;100468.81;;;2.54;93.60
29417;BME280;28421;51.030;4.006;2024-01-15T10:13:52;100476.59;;;2.46;92.36
29417;BME280;28421;51.030;4.006;2024-01-15T10:16:21;100517.63;;;2.63;92.55
29417;BME280;28421;51.030;4.006;2024-01-15T10:18:48;100504.00;;;2.56;94.01
29417;BME280;28421;51.030;4.006;2024-01-15T10:21:13;100482.72;;;2.46;91.86
29417;BME280;28421;51.030;4.006;2024-01-15T10:23:39;100480.06;;;2.67;92.40
29417;BME280;28421;51.030;4.006;2024-01-15T10:26:05;100499.63;;;2.87;92.61
29417;BME280;28421;51.030;4.006;2024-01-15T10:28:31;100497.53;;;2.91;90.35
29417;BME280;28421;51.030;4.006;2024-01-15T10:30:58;100498.22;;;3.14;90.08
29417;BME280;28421;51.030;4.006;2024-01-15T10:33:27;100537.25;;;3.54;89.59
29417;BME280;28421;51.030;4.006;2024-01-15T10:35:57;100499.88;;;3.15;87.64
29417;BME280;28421;51.030;4.006;2024-01-15T10:38:23;100535.41;;;3.14;87.58
29417;BME280;28421;51.030;4.006;2024-01-15T10:40:55;100507.72;;;3.16;88.71
29417;BME280;28421;51.030;4.006;2024-01-15T10:43:22;100534.34;;;3.26;88.41
29417;BME280;28421;51.030;4.006;2024-01-15T10:45:49;100536.75;;;3.29;88.02
29417;BME280;28421;51.030;4.006;2024-01-15T10:48:17;100561.00;;;3.45;87.89
29417;BME280;28421;51.030;4.006;2024-01-15T10:50:44;100534.94;;;3.09;86.97
29417;BME280;28421;51.030;4.006;2024-01-15T10:53:12;100519.75;;;2.90;88.42
29417;BME280;28421;51.030;4.006;2024-01-15T10:55:38;100524.16;;;3.01;88.79
29417;BME280;28421;51.030;4.006;2024-01-15T10:58:07;100527.34;;;3.25;88.83
29417;BME280;28421;51.030;4.006;2024-01-15T11:00:33;100517.31;;;3.29;88.81
29417;BME280;28421;51.030;4.006;2024-01-15T11:03:01;100532.03;;;3.42;84.96
29417;BME280;28421;51.030;4.006;2024-01-15T11:05:27;100528.53;;;3.42;85.54
29417;BME280;28421;51.030;4.006;2024-01-15T11:07:55;100533.81;;;3.32;84.70
29417;BME280;28421;51.030;4.006;2024-01-15T11:10:42;100519.47;;;3.14;84.70
29417;BME280;28421;51.030;4.006;2024-01-15T11:13:20;100536.00;;;3.27;83.69
29417;BME280;28421;51.030;4.006;2024-01-15T11:16:07;100531.72;;;3.36;83.64
29417;BME280;28421;51.030;4.006;2024-01-15T11:19:24;100545.34;;;3.52;82.64
29417;BME280;28421;51.030;4.006;2024-01-15T11:21:32;100503.88;;;3.30;80.26
29417;BME280;28421;51.030;4.006;2024-01-15T11:23:59;100540.34;;;3.59;80.94
29417;BME280;28421;51.030;4.006;2024-01-15T11:28:54;100555.06;;;3.63;81.08
29417;BME280;28421;51.030;4.006;2024-01-15T11:31:27;100517.81;;;3.53;80.80
29417;BME280;28421;51.030;4.006;2024-01-15T11:33:52;100517.44;;;3.67;80.69
29417;BME280;28421;51.030;4.006;2024-01-15T11:36:17;100498.72;;;3.79;80.79
29417;BME280;28421;51.030;4.006;2024-01-15T11:38:43;100524.59;;;3.77;80.18
29417;BME280;28421;51.030;4.006;2024-01-15T11:41:15;100539.78;;;3.65;80.74
29417;BME280;28421;51.030;4.006;2024-01-15T11:43:44;100510.94;;;3.51;82.27
29417;BME280;28421;51.030;4.006;2024-01-15T11:46:12;100533.06;;;3.61;81.74
29417;BME280;28421;51.030;4.006;2024-01-15T11:48:43;100563.72;;;3.65;81.26
29417;BME280;28421;51.030;4.006;2024-01-15T11:51:11;100556.16;;;3.60;82.27
29417;BME280;28421;51.030;4.006;2024-01-15T11:53:45;100556.03;;;3.62;82.58
29417;BME280;28421;51.030;4.006;2024-01-15T11:56:16;100563.88;;;3.63;82.77
29417;BME280;28421;51.030;4.006;2024-01-15T11:58:43;100541.97;;;3.40;82.57
29417;BME280;28421;51.030;4.006;2024-01-15T12:01:10;100544.56;;;3.61;83.32
29417;BME280;28421;51.030;4.006;2024-01-15T12:03:35;100493.69;;;3.35;81.44
29417;BME280;28421;51.030;4.006;2024-01-15T12:06:01;100518.84;;;3.71;80.91
29417;BME280;28421;51.030;4.006;2024-01-15T12:08:27;100507.28;;;3.92;80.90
29417;BME280;28421;51.030;4.006;2024-01-15T12:10:52;100533.13;;;3.80;80.82
29417;BME280;28421;51.030;4.006;2024-01-15T12:13:18;100569.50;;;3.70;83.22
29417;BME280;28421;51.030;4.006;2024-01-15T12:15:46;100571.19;;;3.71;84.68
29417;BME280;28421;51.030;4.006;2024-01-15T12:18:13;100574.16;;;3.78;84.94
29417;BME280;28421;51.030;4.006;2024-01-15T12:20:40;100607.00;;;3.77;84.83
29417;BME280;28421;51.030;4.006;2024-01-15T12:23:06;100545.81;;;3.27;85.55
29417;BME280;28421;51.030;4.006;2024-01-15T12:25:32;100512.50;;;3.22;87.71
29417;BME280;28421;51.030;4.006;2024-01-15T12:28:00;100583.63;;;3.40;87.98
29417;BME280;28421;51.030;4.006;2024-01-15T12:30:30;100568.97;;;3.45;88.73
29417;BME280;28421;51.030;4.006;2024-01-15T12:33:01;100575.16;;;3.56;88.47
29417;BME280;28421;51.030;4.006;2024-01-15T12:35:26;100596.16;;;3.49;91.04
29417;BME280;28421;51.030;4.006;2024-01-15T12:37:54;100555.28;;;2.78;98.01
29417;BME280;28421;51.030;4.006;2024-01-15T12:40:20;100566.44;;;2.92;100.00
29417;BME280;28421;51.030;4.006;2024-01-15T12:42:45;100522.94;;;2.63;100.00
29417;BME280;28421;51.030;4.006;2024-01-15T12:45:12;100535.41;;;2.72;100.00
29417;BME280;28421;51.030;4.006;2024-01-15T12:47:41;100575.88;;;3.06;100.00
29417;BME280;28421;51.030;4.006;2024-01-15T12:50:08;100597.72;;;3.10;100.00